Domov               UVHVVR             MKGP            O straneh              
ZDRAVSTVENO VARSTVO RASTLIN
  MREŽA AGROMET. POSTAJ
 ► PROGNOSTIČNA OBVESTILA
AGROMETEOROLOŠKI PODATKI -
ARSO
OBVLADOVANJE TVEGANJ ZARADI
NEUGODNIH VREMENSKIH RAZMER
  ► NARAVNE NESREČE
  ► SUŠA/MOČA
  ► NAMAKANJE
  ► ŽLED (gozdarstvo)
KARTOGRAFSKI PRIKAZI
SPLETNE POVEZAVE
PROJEKTI IN PUBLIKACIJE

AGROMETEOROLOŠKA MREŽA: VREMENSKE POSTAJE IN FENOLOŠKA OPAZOVANJA

Pregled podatkov za lokacijo Gabernik-Rogaška, meteorološka postaja 37800

Pregled senzorjev na lokaciji

ID Ime Zadnja
vrednost
Datum
zadnje
spremembe
Tip
senzorja
1826 Temperatura 2 m ( °C) 24,44 °C 25.6.2017 03:30 50YA
1827 Relativna vlaga 2 m (% RH) 67,25 % RH 25.6.2017 03:30 50YA
1828 Omočenost lista (U) 0 U 25.6.2017 03:30 A730WET
1829 Padavine 0.2 mm (mm) 0 mm 25.6.2017 03:30 Rain-O-Matic

Pregled podatkov zadnjih 24 ur

Zap.
št.
Datum in čas Gabernik-Rogaška
Omočenost
lista
Padavine
0.2
mm
Relativna
vlaga
2
m
Temperatura
2
m
0 25.6.2017 02:30 0 0 67,25 24,44
1 25.6.2017 02:00 0 0 67,94 25,18
2 25.6.2017 01:30 0 0 70,33 25,25
3 25.6.2017 01:00 0 0 71,87 25,18
4 25.6.2017 00:30 0 0 73,19 25,3
5 25.6.2017 00:00 0 0 73,6 25,42
6 24.6.2017 23:30 0 0 73,28 25,52
7 24.6.2017 23:00 0 0 71,75 25,96
8 24.6.2017 22:30 0 0 70,74 26,28
9 24.6.2017 22:00 0 0 69,35 26,5
10 24.6.2017 21:30 0 0 69,5 26,3
11 24.6.2017 21:00 0 0 68,91 26,32
12 24.6.2017 20:30 0 0 68,42 26,45
13 24.6.2017 20:00 0 0 66,57 26,81
14 24.6.2017 19:30 0 0 64,1 27,59
15 24.6.2017 19:00 0 0 60,61 29,55
16 24.6.2017 18:30 0 0 57,05 30,89
17 24.6.2017 18:00 0 0 61,95 29,13
18 24.6.2017 17:30 0 0 58,02 30,16
19 24.6.2017 17:00 0 0 62,71 27,94
20 24.6.2017 16:30 0 0 62,08 27,81
21 24.6.2017 16:00 0 0 58,88 28,89
22 24.6.2017 15:30 0 0 51,97 31,79
23 24.6.2017 15:00 0 0 48,25 33,5
24 24.6.2017 14:30 0 0 48,57 33,7
25 24.6.2017 14:00 0 0 48,47 33,72
26 24.6.2017 13:30 0 0 47,35 33,85
27 24.6.2017 13:00 0 0 48,23 33,19
28 24.6.2017 12:30 0 0 49,94 32,28
29 24.6.2017 12:00 0 0 51,5 31,58
30 24.6.2017 11:30 0 0 52,6 30,35
31 24.6.2017 11:00 0 0 53,85 29,67
32 24.6.2017 10:30 0 0 56,75 27,3
33 24.6.2017 10:00 0 0 62,78 25,1
34 24.6.2017 09:30 0 0 66,3 23,71
35 24.6.2017 09:00 0 0 66,94 22,93
36 24.6.2017 08:30 0 0 68,38 22,25
37 24.6.2017 08:00 0 0 69,5 21,68
38 24.6.2017 07:30 0 0 74,24 20,85
39 24.6.2017 07:00 0 0 74,8 20,2
40 24.6.2017 06:30 0 0 78,44 19,49
41 24.6.2017 06:00 0 0 80,81 19,02
42 24.6.2017 05:30 0 0 82,42 18,88
43 24.6.2017 05:00 0 0 81,25 19,44
44 24.6.2017 04:30 0 0 83,47 19,24
45 24.6.2017 04:00 0 0 84,18 18,8
© 2011 Ministrstvo za kmetijstvo, gozdarstvo in prehrano. Vse pravice pridržane.